Time;durP1;ratioP1;P1;durP2;ratioP2;P2;SDS_P1;SDS_P2;PMS_P1;PMS_P2;Temp;Humidity;BMP_temperature;BMP_pressure;BME280_temperature;BME280_humidity;BME280_pressure;Samples;Min_cycle;Max_cycle;Signal;HPM_P1;HPM_P2
2023/06/20 00:02:04;;;;;;;4.43;3.58;;;21.50;78.00;;;;;;4828857;29;20048;-68
2023/06/20 00:04:30;;;;;;;5.00;3.55;;;21.40;78.00;;;;;;4834411;29;20037;-68
2023/06/20 00:06:56;;;;;;;4.70;3.35;;;21.40;78.10;;;;;;4830005;29;20041;-68
2023/06/20 00:09:23;;;;;;;5.18;3.47;;;21.40;78.20;;;;;;4830455;29;20319;-69
2023/06/20 00:11:50;;;;;;;5.95;3.90;;;21.40;78.20;;;;;;4815948;29;20048;-69
2023/06/20 00:14:16;;;;;;;4.57;3.67;;;21.30;78.20;;;;;;4828964;29;20531;-68
2023/06/20 00:16:42;;;;;;;5.60;4.18;;;21.40;78.30;;;;;;4827696;29;20413;-69
2023/06/20 00:19:09;;;;;;;5.45;3.38;;;21.40;78.50;;;;;;4828770;29;20037;-69
2023/06/20 00:21:35;;;;;;;4.00;3.33;;;21.40;78.40;;;;;;4844853;29;20040;-70
2023/06/20 00:24:01;;;;;;;4.18;3.08;;;21.40;78.40;;;;;;4832193;29;20044;-69
2023/06/20 00:26:28;;;;;;;4.95;4.15;;;21.30;78.30;;;;;;4813657;29;20040;-69
2023/06/20 00:28:54;;;;;;;6.10;4.28;;;21.30;78.20;;;;;;4817588;29;20048;-69
2023/06/20 00:31:20;;;;;;;4.95;4.10;;;21.30;78.10;;;;;;4833844;29;20496;-68
2023/06/20 00:33:48;;;;;;;4.72;3.80;;;21.40;78.10;;;;;;4800096;29;20049;-69
2023/06/20 00:36:14;;;;;;;4.32;3.42;;;21.30;77.90;;;;;;4818081;29;20041;-68
2023/06/20 00:38:48;;;;;;;4.68;4.22;;;21.30;77.80;;;;;;4829148;29;20048;-69
2023/06/20 00:41:20;;;;;;;5.82;5.07;;;21.30;77.80;;;;;;4829860;29;20041;-69
2023/06/20 00:43:50;;;;;;;5.05;4.40;;;21.30;77.80;;;;;;4814752;29;20057;-69
2023/06/20 00:46:19;;;;;;;7.22;4.35;;;21.30;77.60;;;;;;4830635;29;20041;-69
2023/06/20 00:48:47;;;;;;;6.20;4.47;;;21.40;77.60;;;;;;4820442;29;20052;-68
2023/06/20 00:51:15;;;;;;;6.03;4.85;;;21.40;77.70;;;;;;4835706;29;20041;-68
2023/06/20 00:53:44;;;;;;;5.28;4.40;;;21.40;77.60;;;;;;4831074;29;20044;-68
2023/06/20 00:56:11;;;;;;;7.05;4.70;;;21.40;77.60;;;;;;4824068;29;20064;-68
2023/06/20 00:58:37;;;;;;;3.88;3.45;;;21.40;77.70;;;;;;4842879;29;20044;-68
2023/06/20 01:01:04;;;;;;;6.63;4.82;;;21.40;77.60;;;;;;4805787;29;20416;-68
2023/06/20 01:03:31;;;;;;;6.05;4.07;;;21.40;77.70;;;;;;4829733;29;20049;-68
2023/06/20 01:06:26;;;;;;;4.18;3.72;;;21.40;77.70;;;;;;4828126;29;20056;-69
2023/06/20 01:09:01;;;;;;;5.20;4.43;;;21.40;77.60;;;;;;4816579;29;20594;-68
2023/06/20 01:11:57;;;;;;;5.50;4.22;;;21.40;77.70;;;;;;4817972;29;20037;-68
2023/06/20 01:14:42;;;;;;;7.95;5.30;;;21.30;77.80;;;;;;4836899;29;20034;-68
2023/06/20 01:17:22;;;;;;;4.88;4.20;;;21.30;77.90;;;;;;4832263;29;20033;-68
2023/06/20 01:20:16;;;;;;;5.82;4.22;;;21.30;77.90;;;;;;4823006;29;20396;-68
2023/06/20 01:22:57;;;;;;;8.90;4.32;;;21.30;77.90;;;;;;4820084;29;20433;-68
2023/06/20 01:25:51;;;;;;;4.93;4.43;;;21.30;78.00;;;;;;4827615;29;20025;-68
2023/06/20 01:28:33;;;;;;;6.65;3.88;;;21.30;78.00;;;;;;4832870;29;20029;-68
2023/06/20 01:31:24;;;;;;;4.30;3.63;;;21.30;77.90;;;;;;4834069;29;20040;-68
2023/06/20 01:33:56;;;;;;;4.90;3.53;;;21.30;77.90;;;;;;4835691;29;20044;-69
2023/06/20 01:36:24;;;;;;;;;;;21.30;77.90;;;;;;4841376;29;20025;-68
2023/06/20 01:38:56;;;;;;;6.07;4.70;;;21.30;78.00;;;;;;4822425;29;19927;-68
2023/06/20 01:41:24;;;;;;;4.97;4.47;;;21.30;78.90;;;;;;4833741;29;20373;-68
2023/06/20 01:43:55;;;;;;;4.88;4.20;;;21.30;78.40;;;;;;4816288;29;20048;-68
2023/06/20 01:46:23;;;;;;;5.30;4.70;;;21.30;78.50;;;;;;4813920;29;20060;-68
2023/06/20 01:48:51;;;;;;;5.05;3.78;;;21.30;78.50;;;;;;4833903;29;20033;-68
2023/06/20 01:51:19;;;;;;;4.72;4.10;;;21.30;78.50;;;;;;4807209;29;20049;-68
2023/06/20 01:53:47;;;;;;;5.60;4.30;;;21.30;78.60;;;;;;4841918;29;21425;-68
2023/06/20 01:56:15;;;;;;;5.15;4.65;;;21.30;78.70;;;;;;4840133;29;20701;-68
2023/06/20 01:58:42;;;;;;;5.45;3.72;;;21.30;78.90;;;;;;4827703;29;20040;-68
2023/06/20 02:01:11;;;;;;;5.72;4.88;;;21.30;78.90;;;;;;4830428;29;20041;-69
2023/06/20 02:03:41;;;;;;;7.13;4.93;;;21.30;79.00;;;;;;4826523;29;20266;-69
2023/06/20 02:06:09;;;;;;;6.43;4.43;;;21.30;79.10;;;;;;4827362;29;20041;-69
2023/06/20 02:08:37;;;;;;;6.13;5.32;;;21.30;79.10;;;;;;4833365;29;20056;-68
2023/06/20 02:11:05;;;;;;;4.93;4.40;;;21.30;79.30;;;;;;4828650;29;20033;-69
2023/06/20 02:13:34;;;;;;;4.90;4.38;;;21.30;79.40;;;;;;4838110;29;20047;-69
2023/06/20 02:16:04;;;;;;;8.30;5.63;;;21.30;79.50;;;;;;4831469;29;20045;-69
2023/06/20 02:18:32;;;;;;;4.45;3.92;;;21.30;79.40;;;;;;4818274;29;20045;-69
2023/06/20 02:21:04;;;;;;;6.32;5.03;;;21.30;79.40;;;;;;4818082;29;20036;-69
2023/06/20 02:23:34;;;;;;;6.10;4.85;;;21.30;79.50;;;;;;4811249;29;20047;-69
2023/06/20 02:26:09;;;;;;;4.80;4.40;;;21.30;79.60;;;;;;4826893;29;20040;-69
2023/06/20 02:28:40;;;;;;;7.40;5.82;;;21.30;79.60;;;;;;4837782;29;20045;-69
2023/06/20 02:31:09;;;;;;;7.32;6.43;;;21.30;79.90;;;;;;4827499;29;20338;-69
2023/06/20 02:33:38;;;;;;;7.07;6.32;;;21.30;80.10;;;;;;4840072;29;20048;-69
2023/06/20 02:36:07;;;;;;;6.90;5.47;;;21.30;80.40;;;;;;4830270;29;20041;-69
2023/06/20 02:38:34;;;;;;;5.10;4.40;;;21.30;80.30;;;;;;4834751;29;20508;-69
2023/06/20 02:41:01;;;;;;;6.05;5.25;;;21.20;80.30;;;;;;4837605;29;20818;-69
2023/06/20 02:43:28;;;;;;;8.15;5.60;;;21.20;80.30;;;;;;4818656;29;20040;-69
2023/06/20 02:46:06;;;;;;;5.63;4.55;;;21.20;80.50;;;;;;4831927;29;20428;-69
2023/06/20 02:48:45;;;;;;;4.72;3.95;;;21.20;80.50;;;;;;4830299;29;20497;-69
2023/06/20 02:51:19;;;;;;;6.00;5.43;;;21.20;80.60;;;;;;4847415;29;20871;-69
2023/06/20 02:54:09;;;;;;;6.53;5.90;;;21.20;80.70;;;;;;4832477;29;20045;-69
2023/06/20 02:56:38;;;;;;;7.88;6.05;;;21.20;81.00;;;;;;4831143;29;20053;-69
2023/06/20 02:59:07;;;;;;;7.90;5.57;;;21.20;81.20;;;;;;4807696;29;20424;-69
2023/06/20 03:01:37;;;;;;;6.35;5.38;;;21.20;81.20;;;;;;4835850;29;20045;-69
2023/06/20 03:04:06;;;;;;;7.95;6.80;;;21.20;81.20;;;;;;4831947;29;20598;-68
2023/06/20 03:06:33;;;;;;;6.32;5.75;;;21.20;81.50;;;;;;4835164;29;20040;-69
2023/06/20 03:09:03;;;;;;;8.63;6.82;;;21.20;81.40;;;;;;4847008;29;20041;-69
2023/06/20 03:11:30;;;;;;;6.80;6.10;;;21.20;81.50;;;;;;4830663;29;20045;-69
2023/06/20 03:13:56;;;;;;;6.32;5.72;;;21.20;81.70;;;;;;4817270;29;20048;-69
2023/06/20 03:16:26;;;;;;;7.25;6.55;;;21.20;81.70;;;;;;4802148;29;20056;-69
2023/06/20 03:18:53;;;;;;;9.50;7.32;;;21.20;81.70;;;;;;4835587;29;20395;-69
2023/06/20 03:21:21;;;;;;;7.53;5.90;;;21.30;81.90;;;;;;4821045;29;20037;-69
2023/06/20 03:23:47;;;;;;;5.95;5.32;;;21.30;81.80;;;;;;4836065;29;20502;-68
2023/06/20 03:26:14;;;;;;;9.05;7.25;;;21.30;82.10;;;;;;4825997;29;20053;-69
2023/06/20 03:28:40;;;;;;;7.32;6.63;;;21.30;82.10;;;;;;4847110;29;20048;-69
2023/06/20 03:31:06;;;;;;;7.03;5.78;;;21.30;82.20;;;;;;4825135;29;20052;-69
2023/06/20 03:33:33;;;;;;;5.72;5.15;;;21.20;82.10;;;;;;4817134;29;20041;-68
2023/06/20 03:36:00;;;;;;;6.20;5.30;;;21.20;82.10;;;;;;4833569;29;20481;-69
2023/06/20 03:38:27;;;;;;;4.88;4.38;;;21.20;82.20;;;;;;4817819;29;20042;-69
2023/06/20 03:40:54;;;;;;;6.60;5.88;;;21.20;82.10;;;;;;4835451;29;20041;-69
2023/06/20 03:43:20;;;;;;;6.88;5.93;;;21.20;82.30;;;;;;4834961;29;20064;-69
2023/06/20 03:45:47;;;;;;;6.70;6.00;;;21.20;82.30;;;;;;4836788;29;20045;-69
2023/06/20 03:48:14;;;;;;;6.15;4.57;;;21.20;82.40;;;;;;4830412;29;20041;-69
2023/06/20 03:50:40;;;;;;;7.43;6.15;;;21.20;82.40;;;;;;4808769;29;20051;-69
2023/06/20 03:53:10;;;;;;;6.95;6.22;;;21.20;82.60;;;;;;4821066;29;20527;-69
2023/06/20 03:55:36;;;;;;;6.80;4.82;;;21.20;82.60;;;;;;4796033;29;20049;-69
2023/06/20 03:58:03;;;;;;;6.68;6.05;;;21.20;82.60;;;;;;4837792;29;20045;-69
2023/06/20 04:00:29;;;;;;;7.75;6.10;;;21.20;82.70;;;;;;4835287;29;20045;-69
2023/06/20 04:02:55;;;;;;;6.25;5.45;;;21.20;82.90;;;;;;4840006;29;20357;-69
2023/06/20 04:05:25;;;;;;;7.78;6.70;;;21.20;82.90;;;;;;4821895;29;20041;-69
2023/06/20 04:07:51;;;;;;;6.07;5.47;;;21.20;83.10;;;;;;4842208;29;20052;-69
2023/06/20 04:10:18;;;;;;;5.18;4.68;;;21.20;83.10;;;;;;4833387;29;20041;-69
2023/06/20 04:12:44;;;;;;;7.15;5.72;;;21.20;83.00;;;;;;4820753;29;20049;-69
2023/06/20 04:15:11;;;;;;;7.07;5.00;;;21.20;83.20;;;;;;4828433;29;20033;-69
2023/06/20 04:17:39;;;;;;;8.07;6.38;;;21.20;83.20;;;;;;4818441;29;20053;-69
2023/06/20 04:20:12;;;;;;;5.70;5.20;;;21.20;83.40;;;;;;4834966;29;20037;-69
2023/06/20 04:22:45;;;;;;;9.32;6.88;;;21.30;83.40;;;;;;4830314;29;20473;-69
2023/06/20 04:25:16;;;;;;;8.52;6.78;;;21.30;83.50;;;;;;4837617;29;20037;-69
2023/06/20 04:27:44;;;;;;;;;;;21.30;83.60;;;;;;4820369;29;20036;-69
2023/06/20 04:30:11;;;;;;;6.40;5.80;;;21.30;83.70;;;;;;4835456;29;19920;-69
2023/06/20 04:32:39;;;;;;;8.88;7.18;;;21.30;83.80;;;;;;4832906;29;20045;-69
2023/06/20 04:35:10;;;;;;;6.88;6.22;;;21.30;84.40;;;;;;4797817;29;20055;-69
2023/06/20 04:37:38;;;;;;;9.15;8.07;;;21.30;83.70;;;;;;4821700;29;20037;-69
2023/06/20 04:40:07;;;;;;;7.60;6.90;;;21.30;84.10;;;;;;4823051;29;20044;-68
2023/06/20 04:42:34;;;;;;;9.95;8.48;;;21.30;84.00;;;;;;4844498;29;20252;-69
2023/06/20 04:45:00;;;;;;;9.40;7.80;;;21.30;84.10;;;;;;4833687;29;20048;-69
2023/06/20 04:47:27;;;;;;;9.70;8.65;;;21.20;84.30;;;;;;4834222;29;20072;-69
2023/06/20 04:49:53;;;;;;;7.85;6.75;;;21.20;84.40;;;;;;4817605;29;20056;-69
2023/06/20 04:52:20;;;;;;;8.68;7.18;;;21.20;84.50;;;;;;4833202;29;20497;-69
2023/06/20 04:54:47;;;;;;;6.95;6.25;;;21.20;84.70;;;;;;4814772;29;20059;-69
2023/06/20 04:57:13;;;;;;;9.38;7.45;;;21.20;84.80;;;;;;4832920;29;20033;-69
2023/06/20 04:59:41;;;;;;;7.88;7.03;;;21.30;84.80;;;;;;4846065;29;20515;-69
2023/06/20 05:02:07;;;;;;;8.77;7.40;;;21.30;84.80;;;;;;4843689;29;20052;-69
2023/06/20 05:04:33;;;;;;;7.22;6.47;;;21.30;85.00;;;;;;4829116;29;20045;-69
2023/06/20 05:07:00;;;;;;;6.82;5.60;;;21.30;84.90;;;;;;4830381;29;20040;-69
2023/06/20 05:09:27;;;;;;;8.88;6.72;;;21.30;84.90;;;;;;4831164;29;20048;-69
2023/06/20 05:11:53;;;;;;;8.50;7.63;;;21.30;84.90;;;;;;4805094;29;20456;-69
2023/06/20 05:14:19;;;;;;;8.48;7.15;;;21.40;85.00;;;;;;4813125;29;20543;-69
2023/06/20 05:16:46;;;;;;;6.75;6.15;;;21.40;85.00;;;;;;4836855;29;20045;-68
2023/06/20 05:19:12;;;;;;;7.35;6.53;;;21.50;85.00;;;;;;4844118;29;20549;-68
2023/06/20 05:21:39;;;;;;;7.75;7.05;;;21.50;84.90;;;;;;4839612;29;20045;-69
2023/06/20 05:24:05;;;;;;;10.32;7.45;;;21.50;84.90;;;;;;4829308;29;20454;-69
2023/06/20 05:26:31;;;;;;;7.13;6.43;;;21.50;85.10;;;;;;4829023;29;20503;-69
2023/06/20 05:28:57;;;;;;;6.93;6.28;;;21.60;85.00;;;;;;4832102;29;20056;-69
2023/06/20 05:31:24;;;;;;;8.35;7.55;;;21.60;85.00;;;;;;4834280;29;20041;-70
2023/06/20 05:33:51;;;;;;;7.88;6.45;;;21.70;85.00;;;;;;4799148;29;20061;-68
2023/06/20 05:36:17;;;;;;;7.45;6.72;;;21.70;85.00;;;;;;4839600;29;20033;-68
2023/06/20 05:38:44;;;;;;;9.70;8.20;;;21.70;84.90;;;;;;4844486;29;20052;-68
2023/06/20 05:41:14;;;;;;;7.68;6.40;;;21.70;85.00;;;;;;4838508;29;20040;-68
2023/06/20 05:43:40;;;;;;;8.68;6.97;;;21.80;85.00;;;;;;4815329;29;20037;-68
2023/06/20 05:46:06;;;;;;;7.25;6.60;;;21.80;85.00;;;;;;4833628;29;20029;-68
2023/06/20 05:48:34;;;;;;;10.68;7.80;;;21.80;85.10;;;;;;4836521;29;20021;-68
2023/06/20 05:51:00;;;;;;;7.40;6.70;;;21.90;85.10;;;;;;4834792;29;20029;-68
2023/06/20 05:53:27;;;;;;;8.43;7.47;;;22.00;85.10;;;;;;4837424;29;20029;-69
2023/06/20 05:55:53;;;;;;;6.80;6.15;;;22.00;85.10;;;;;;4838102;29;20056;-69
2023/06/20 05:58:20;;;;;;;7.25;6.55;;;22.00;85.10;;;;;;4845579;29;20044;-68
2023/06/20 06:00:47;;;;;;;8.52;7.65;;;22.00;85.30;;;;;;4805079;29;20041;-68
2023/06/20 06:03:13;;;;;;;9.15;7.05;;;22.10;85.40;;;;;;4834361;29;20045;-70
2023/06/20 06:05:39;;;;;;;15.88;12.25;;;22.10;85.30;;;;;;4813075;29;20033;-72
2023/06/20 06:08:06;;;;;;;25.48;18.40;;;22.10;85.50;;;;;;4833345;29;20359;-71
2023/06/20 06:10:33;;;;;;;19.38;13.55;;;22.10;85.50;;;;;;4804583;29;20064;-72
2023/06/20 06:12:59;;;;;;;10.40;9.30;;;22.10;85.60;;;;;;4827559;29;20039;-70
2023/06/20 06:15:25;;;;;;;8.57;7.78;;;22.10;85.50;;;;;;4838286;29;20033;-69
2023/06/20 06:17:51;;;;;;;9.00;6.93;;;22.30;85.50;;;;;;4837537;29;20032;-76
2023/06/20 06:20:19;;;;;;;7.93;7.13;;;22.60;85.20;;;;;;4835548;29;20041;-68
2023/06/20 06:22:46;;;;;;;8.98;8.18;;;23.00;84.70;;;;;;4832310;29;20053;-69
2023/06/20 06:25:12;;;;;;;7.80;7.00;;;23.40;84.20;;;;;;4827635;29;20036;-69
2023/06/20 06:27:38;;;;;;;7.78;6.97;;;23.80;83.50;;;;;;4834917;29;20408;-68
2023/06/20 06:30:06;;;;;;;12.02;8.93;;;24.00;82.70;;;;;;4837763;29;20037;-69
2023/06/20 06:32:34;;;;;;;9.82;8.68;;;24.20;82.20;;;;;;4843907;29;20037;-70
2023/06/20 06:35:02;;;;;;;10.95;9.43;;;24.30;82.00;;;;;;4818734;29;20045;-70
2023/06/20 06:37:30;;;;;;;9.15;8.25;;;24.50;81.90;;;;;;4833290;29;20047;-70
2023/06/20 06:39:59;;;;;;;11.07;9.25;;;24.50;81.60;;;;;;4834300;29;20401;-69
2023/06/20 06:42:25;;;;;;;8.30;7.47;;;24.60;81.40;;;;;;4833930;29;20044;-71
2023/06/20 06:44:53;;;;;;;8.73;7.78;;;24.70;81.20;;;;;;4826255;29;21111;-68
2023/06/20 06:47:19;;;;;;;7.10;6.30;;;24.90;81.00;;;;;;4818593;29;20041;-70
2023/06/20 06:49:46;;;;;;;8.20;7.47;;;24.90;80.90;;;;;;4840707;29;20045;-69
2023/06/20 06:52:12;;;;;;;8.95;8.15;;;24.80;80.60;;;;;;4842088;29;20036;-69
2023/06/20 06:54:38;;;;;;;9.25;8.35;;;24.80;81.00;;;;;;4833849;29;20383;-68
2023/06/20 06:57:05;;;;;;;8.02;6.93;;;24.70;81.20;;;;;;4819157;29;20468;-68
2023/06/20 06:59:31;;;;;;;9.80;8.80;;;24.70;81.40;;;;;;4834755;29;20481;-69
2023/06/20 07:01:58;;;;;;;8.55;7.75;;;24.70;81.50;;;;;;4834432;29;20060;-69
2023/06/20 07:04:24;;;;;;;9.13;8.15;;;24.80;81.40;;;;;;4828359;29;20057;-69
2023/06/20 07:06:51;;;;;;;11.32;8.80;;;25.10;81.30;;;;;;4814755;29;22467;-69
2023/06/20 07:09:17;;;;;;;12.98;9.10;;;25.20;81.00;;;;;;4843089;29;20807;-69
2023/06/20 07:11:43;;;;;;;9.02;8.13;;;25.30;80.90;;;;;;4841939;29;20394;-69
2023/06/20 07:14:10;;;;;;;10.52;8.93;;;25.40;80.70;;;;;;4830203;29;20390;-69
2023/06/20 07:16:36;;;;;;;9.98;8.95;;;25.50;80.60;;;;;;4826022;29;20037;-69
2023/06/20 07:19:03;;;;;;;11.23;8.75;;;25.70;80.50;;;;;;4834757;29;20503;-69
2023/06/20 07:21:29;;;;;;;7.95;7.35;;;25.90;80.10;;;;;;4817472;29;20643;-69
2023/06/20 07:23:55;;;;;;;11.35;8.60;;;26.10;79.80;;;;;;4831783;29;20635;-69
2023/06/20 07:26:22;;;;;;;10.15;9.15;;;26.30;79.50;;;;;;4838494;29;20583;-69
2023/06/20 07:28:48;;;;;;;8.85;7.72;;;26.20;79.20;;;;;;4846497;29;20064;-69
2023/06/20 07:31:18;;;;;;;9.45;7.60;;;26.10;79.00;;;;;;4843845;29;20396;-69
2023/06/20 07:33:45;;;;;;;9.32;8.25;;;26.00;79.30;;;;;;4832499;29;20044;-69
2023/06/20 07:36:12;;;;;;;9.07;8.27;;;26.10;79.50;;;;;;4801052;29;20063;-68
2023/06/20 07:38:39;;;;;;;6.63;6.03;;;26.20;79.60;;;;;;4835073;29;20072;-68
2023/06/20 07:41:05;;;;;;;7.40;6.68;;;26.50;79.40;;;;;;4833638;29;20041;-68
2023/06/20 07:43:32;;;;;;;7.97;6.68;;;26.80;78.90;;;;;;4815935;29;20653;-68
2023/06/20 07:45:58;;;;;;;7.32;6.63;;;27.30;78.30;;;;;;4837207;29;20048;-69
2023/06/20 07:48:29;;;;;;;7.18;6.68;;;27.80;77.70;;;;;;4840976;29;20052;-69
2023/06/20 07:50:56;;;;;;;6.23;5.63;;;28.20;76.80;;;;;;4826602;29;20044;-69
2023/06/20 07:53:23;;;;;;;7.25;6.60;;;28.20;76.10;;;;;;4826793;29;20308;-70
2023/06/20 07:55:51;;;;;;;8.45;7.75;;;28.00;75.70;;;;;;4817856;29;20412;-71
2023/06/20 07:58:19;;;;;;;5.80;5.30;;;27.80;76.20;;;;;;4832417;29;21519;-69
2023/06/20 08:00:45;;;;;;;7.63;6.95;;;27.80;76.40;;;;;;4833939;29;20040;-69
2023/06/20 08:03:11;;;;;;;6.55;5.75;;;27.80;76.50;;;;;;4829926;29;20036;-69
2023/06/20 08:05:38;;;;;;;6.07;5.57;;;28.00;76.50;;;;;;4808730;29;20057;-69
2023/06/20 08:08:04;;;;;;;5.30;4.40;;;28.00;76.20;;;;;;4834340;29;20745;-69
2023/06/20 08:10:31;;;;;;;5.88;4.50;;;28.10;76.80;;;;;;4841244;29;20041;-69
2023/06/20 08:12:57;;;;;;;4.78;4.28;;;28.30;76.20;;;;;;4842535;29;20036;-69
2023/06/20 08:15:23;;;;;;;3.72;3.40;;;28.50;75.80;;;;;;4828515;29;20518;-69
2023/06/20 08:17:49;;;;;;;4.30;3.90;;;28.60;75.60;;;;;;4804598;29;20045;-66
2023/06/20 08:20:16;;;;;;;5.22;4.72;;;28.80;75.50;;;;;;4834304;29;23812;-69
2023/06/20 08:22:42;;;;;;;5.47;4.72;;;28.90;75.30;;;;;;4833107;29;20045;-69
2023/06/20 08:25:08;;;;;;;5.35;4.43;;;28.90;74.90;;;;;;4827421;29;20040;-69
2023/06/20 08:27:35;;;;;;;5.35;3.67;;;28.80;74.70;;;;;;4841484;29;20053;-70
2023/06/20 08:30:01;;;;;;;6.03;4.60;;;28.80;74.70;;;;;;4842729;29;20033;-66
2023/06/20 08:32:28;;;;;;;5.75;3.70;;;28.80;74.50;;;;;;4829184;29;20041;-66
2023/06/20 08:34:55;;;;;;;4.47;4.07;;;28.80;74.70;;;;;;4830349;29;20045;-67
2023/06/20 08:37:24;;;;;;;4.47;3.30;;;28.80;74.70;;;;;;4836869;29;20052;-68
2023/06/20 08:39:50;;;;;;;5.82;3.60;;;28.90;74.60;;;;;;4838023;29;20033;-67
2023/06/20 08:42:16;;;;;;;3.70;3.22;;;29.00;74.40;;;;;;4838417;29;20033;-68
2023/06/20 08:44:44;;;;;;;3.85;3.55;;;29.10;74.40;;;;;;4828417;29;20037;-68
2023/06/20 08:47:10;;;;;;;3.28;2.88;;;29.30;74.00;;;;;;4827884;29;20052;-68
2023/06/20 08:49:36;;;;;;;3.75;3.42;;;29.40;73.70;;;;;;4845755;29;20041;-68
2023/06/20 08:52:13;;;;;;;4.05;3.47;;;29.40;73.10;;;;;;4839699;29;20046;-68
2023/06/20 08:54:43;;;;;;;3.28;2.97;;;29.50;72.80;;;;;;4828159;29;20410;-68
2023/06/20 08:57:09;;;;;;;2.92;2.63;;;29.60;72.60;;;;;;4832850;29;20036;-68
2023/06/20 08:59:35;;;;;;;4.75;2.80;;;29.70;72.40;;;;;;4837168;29;20484;-68
2023/06/20 09:02:07;;;;;;;3.50;2.08;;;29.90;71.80;;;;;;4836640;29;20033;-69
2023/06/20 09:04:34;;;;;;;2.20;2.00;;;29.90;71.10;;;;;;4831815;29;20041;-68
2023/06/20 09:07:01;;;;;;;2.80;2.50;;;30.10;70.70;;;;;;4843287;29;20048;-68
2023/06/20 09:09:27;;;;;;;3.42;3.13;;;30.10;70.00;;;;;;4844200;29;20063;-68
2023/06/20 09:11:58;;;;;;;3.45;2.13;;;30.10;69.90;;;;;;4821457;29;20041;-68
2023/06/20 09:14:29;;;;;;;2.55;2.22;;;30.20;70.00;;;;;;4813751;29;20401;-67
2023/06/20 09:16:56;;;;;;;3.60;3.30;;;30.30;70.20;;;;;;4818289;29;20059;-68
2023/06/20 09:19:23;;;;;;;4.15;2.72;;;30.50;69.80;;;;;;4836667;29;20063;-68
2023/06/20 09:21:49;;;;;;;3.35;3.05;;;30.60;69.90;;;;;;4818905;29;20056;-68
2023/06/20 09:24:20;;;;;;;4.88;3.75;;;30.70;69.70;;;;;;4820364;29;20972;-68
2023/06/20 09:26:47;;;;;;;3.33;2.88;;;30.80;69.50;;;;;;4840387;29;20037;-68
2023/06/20 09:29:16;;;;;;;3.30;2.92;;;30.90;69.00;;;;;;4826411;29;20049;-68
2023/06/20 09:31:51;;;;;;;4.35;2.20;;;30.90;68.80;;;;;;4821111;29;20032;-68
2023/06/20 09:34:19;;;;;;;3.35;3.03;;;30.90;68.80;;;;;;4832301;29;20409;-68
2023/06/20 09:36:46;;;;;;;2.88;2.58;;;31.00;68.70;;;;;;4831595;29;20048;-68
2023/06/20 09:39:20;;;;;;;3.67;3.30;;;31.10;68.80;;;;;;4836433;29;20033;-68
2023/06/20 09:41:49;;;;;;;3.00;2.70;;;31.20;68.70;;;;;;4836213;29;20044;-67
2023/06/20 09:44:17;;;;;;;4.63;2.75;;;31.10;68.70;;;;;;4841081;29;20072;-68
2023/06/20 09:46:43;;;;;;;3.80;3.45;;;31.10;68.50;;;;;;4837705;29;20044;-67
2023/06/20 09:49:12;;;;;;;6.47;3.30;;;31.10;68.60;;;;;;4834108;29;20048;-68
2023/06/20 09:51:46;;;;;;;2.55;2.35;;;31.20;68.70;;;;;;4833844;29;20056;-68
2023/06/20 09:54:15;;;;;;;4.22;3.78;;;31.20;68.70;;;;;;4830021;29;20490;-68
2023/06/20 09:56:52;;;;;;;4.72;3.05;;;31.40;68.80;;;;;;4829294;29;20061;-68
2023/06/20 09:59:21;;;;;;;3.40;2.67;;;31.60;68.60;;;;;;4819598;29;21524;-68
2023/06/20 10:01:49;;;;;;;3.42;3.13;;;31.80;68.30;;;;;;4843345;29;20491;-68
2023/06/20 10:04:16;;;;;;;4.20;3.22;;;31.90;67.90;;;;;;4826162;29;20048;-68
2023/06/20 10:06:43;;;;;;;10.50;4.10;;;31.90;68.00;;;;;;4839310;29;20041;-68
2023/06/20 10:09:10;;;;;;;3.70;3.35;;;31.80;67.90;;;;;;4828239;29;20037;-71
2023/06/20 10:11:41;;;;;;;4.03;3.25;;;31.70;67.90;;;;;;4824429;29;20485;-72
2023/06/20 10:14:08;;;;;;;4.47;4.07;;;31.80;68.30;;;;;;4831700;29;20655;-71
2023/06/20 10:16:35;;;;;;;4.97;3.45;;;32.10;68.10;;;;;;4813182;29;20465;-67
2023/06/20 10:19:17;;;;;;;4.38;3.97;;;32.40;67.90;;;;;;4835269;29;20037;-68
2023/06/20 10:21:59;;;;;;;5.32;4.28;;;32.40;67.50;;;;;;4835374;29;20041;-69
2023/06/20 10:24:27;;;;;;;4.05;3.20;;;32.40;67.20;;;;;;4813718;29;23209;-68
2023/06/20 10:26:54;;;;;;;4.63;2.63;;;32.10;67.00;;;;;;4833377;29;20030;-69
2023/06/20 10:29:22;;;;;;;3.33;2.15;;;32.00;67.40;;;;;;4844500;29;20029;-68
2023/06/20 10:31:54;;;;;;;2.80;2.35;;;32.20;67.40;;;;;;4845391;29;20341;-69
2023/06/20 10:34:40;;;;;;;2.45;2.17;;;32.30;67.20;;;;;;4835369;29;20049;-69
2023/06/20 10:37:16;;;;;;;5.15;1.90;;;32.50;66.60;;;;;;4833660;29;20045;-68
2023/06/20 10:39:56;;;;;;;2.80;2.03;;;32.70;66.50;;;;;;4834016;29;20041;-69
2023/06/20 10:42:42;;;;;;;2.42;2.17;;;33.10;65.80;;;;;;4833493;29;20493;-68
2023/06/20 10:45:29;;;;;;;2.13;1.58;;;33.30;65.10;;;;;;4826568;29;20068;-68
2023/06/20 10:47:56;;;;;;;2.00;1.63;;;33.60;64.90;;;;;;4857882;29;20040;-69
2023/06/20 10:50:27;;;;;;;2.97;1.80;;;33.90;64.30;;;;;;4842668;29;20048;-68
2023/06/20 10:52:54;;;;;;;1.67;1.50;;;34.10;63.80;;;;;;4837360;29;20025;-68
2023/06/20 10:55:28;;;;;;;1.50;1.20;;;34.30;63.30;;;;;;4812260;29;20508;-68
2023/06/20 10:57:56;;;;;;;2.17;1.42;;;34.60;63.00;;;;;;4849727;29;20045;-69
2023/06/20 11:00:23;;;;;;;3.40;1.50;;;34.90;62.40;;;;;;4836208;29;20701;-68
2023/06/20 11:02:52;;;;;;;2.15;1.30;;;34.90;61.60;;;;;;4818804;29;20319;-68
2023/06/20 11:05:22;;;;;;;2.13;1.13;;;34.70;61.80;;;;;;4818292;29;20041;-68
2023/06/20 11:08:04;;;;;;;3.60;1.33;;;34.70;62.30;;;;;;4844164;29;20046;-68
2023/06/20 11:10:33;;;;;;;1.55;1.20;;;35.10;62.40;;;;;;4847115;29;20053;-68
2023/06/20 11:13:01;;;;;;;2.75;1.10;;;35.70;61.60;;;;;;4853685;29;20369;-68
2023/06/20 11:15:30;;;;;;;1.83;1.30;;;35.80;60.30;;;;;;4828771;29;20037;-68
2023/06/20 11:17:59;;;;;;;2.83;1.30;;;35.90;60.40;;;;;;4835762;29;20049;-69
2023/06/20 11:20:26;;;;;;;1.98;1.30;;;35.90;59.80;;;;;;4834534;29;21294;-69
2023/06/20 11:22:54;;;;;;;3.42;1.13;;;36.20;59.00;;;;;;4820659;29;20041;-68
2023/06/20 11:25:28;;;;;;;2.60;1.30;;;36.50;59.00;;;;;;4836514;29;20045;-69
2023/06/20 11:27:55;;;;;;;2.35;1.17;;;36.90;58.40;;;;;;4845291;29;20049;-68
2023/06/20 11:30:29;;;;;;;1.67;1.00;;;36.70;57.50;;;;;;4811337;29;20041;-68
2023/06/20 11:33:00;;;;;;;1.20;1.10;;;36.90;57.60;;;;;;4835811;29;20033;-68
2023/06/20 11:35:51;;;;;;;1.73;0.90;;;37.20;57.40;;;;;;4830397;29;20037;-69
2023/06/20 11:38:22;;;;;;;;;;;37.80;56.80;;;;;;4833520;29;20060;-68
2023/06/20 11:41:05;;;;;;;1.23;1.03;;;38.20;55.90;;;;;;4837526;29;20612;-68
2023/06/20 11:43:38;;;;;;;1.40;1.02;;;38.50;55.20;;;;;;4843530;29;20781;-68
2023/06/20 11:46:06;;;;;;;3.05;0.90;;;38.90;54.90;;;;;;4843241;29;20037;-69
2023/06/20 11:48:33;;;;;;;1.08;0.82;;;39.20;54.40;;;;;;4841388;29;20103;-69
2023/06/20 11:51:01;;;;;;;1.95;0.80;;;39.50;53.90;;;;;;4837389;29;20030;-69
2023/06/20 11:53:36;;;;;;;1.25;0.70;;;39.80;52.60;;;;;;4834224;29;20041;-69
2023/06/20 11:56:11;;;;;;;1.75;1.10;;;40.00;52.10;;;;;;4816088;29;20059;-69
2023/06/20 11:58:40;;;;;;;1.88;1.17;;;40.20;52.00;;;;;;4838981;29;20032;-69
2023/06/20 12:01:13;;;;;;;2.70;1.10;;;40.30;51.50;;;;;;4813434;29;20262;-69
2023/06/20 12:03:41;;;;;;;2.10;1.10;;;40.30;51.30;;;;;;4827474;29;20044;-69
2023/06/20 12:06:43;;;;;;;2.50;0.98;;;40.40;51.20;;;;;;4841974;29;20041;-69
2023/06/20 12:09:17;;;;;;;1.85;1.00;;;40.70;51.00;;;;;;4832239;29;20818;-69
2023/06/20 12:11:52;;;;;;;2.15;0.90;;;40.80;50.30;;;;;;4821010;29;20041;-69
2023/06/20 12:14:22;;;;;;;1.40;0.90;;;41.10;50.20;;;;;;4831452;29;20037;-69
2023/06/20 12:16:51;;;;;;;1.48;0.93;;;41.20;49.90;;;;;;4833952;29;20800;-68
2023/06/20 12:19:21;;;;;;;1.90;0.70;;;41.60;49.70;;;;;;4840095;29;20047;-69
2023/06/20 12:21:49;;;;;;;1.90;0.88;;;41.90;49.00;;;;;;4845894;29;20037;-69
2023/06/20 12:24:15;;;;;;;3.55;0.90;;;42.30;48.40;;;;;;4840401;29;20790;-69
2023/06/20 12:26:43;;;;;;;4.50;0.98;;;42.40;47.80;;;;;;4832447;29;20040;-69
2023/06/20 12:29:10;;;;;;;1.30;1.00;;;42.50;48.10;;;;;;4835434;29;20033;-69
2023/06/20 12:31:36;;;;;;;1.58;0.90;;;42.80;47.80;;;;;;4837124;29;20044;-69
2023/06/20 12:34:02;;;;;;;1.85;0.93;;;42.90;47.40;;;;;;4819341;29;20044;-69
2023/06/20 12:36:31;;;;;;;3.67;0.82;;;42.90;47.60;;;;;;4834402;29;20073;-69
2023/06/20 12:38:57;;;;;;;2.13;1.02;;;42.90;47.20;;;;;;4828129;29;20037;-68
2023/06/20 12:41:23;;;;;;;2.65;0.77;;;42.90;47.00;;;;;;4831043;29;21869;-69
2023/06/20 12:43:50;;;;;;;1.88;1.00;;;43.00;47.10;;;;;;4836092;29;20580;-68
2023/06/20 12:46:16;;;;;;;1.85;0.70;;;42.90;46.50;;;;;;4830850;29;20049;-68
2023/06/20 12:48:42;;;;;;;1.40;0.73;;;42.90;46.40;;;;;;4835706;29;20484;-69
2023/06/20 12:51:09;;;;;;;1.90;0.90;;;43.10;46.80;;;;;;4836922;29;20414;-68
2023/06/20 12:53:35;;;;;;;3.25;0.90;;;43.40;47.20;;;;;;4832733;29;20041;-69
2023/06/20 12:56:01;;;;;;;3.10;0.90;;;43.60;45.60;;;;;;4832039;29;20053;-69
2023/06/20 12:58:31;;;;;;;3.60;1.00;;;43.60;45.30;;;;;;4844977;29;20361;-69